sensor_id;sensor_type;location;lat;lon;timestamp;P1;durP1;ratioP1;P2;durP2;ratioP2
41829;SDS011;38614;43.472;23.936;2022-12-18T00:00:47;18.33;;;7.28;;
41829;SDS011;38614;43.472;23.936;2022-12-18T00:03:35;17.27;;;7.88;;
41829;SDS011;38614;43.472;23.936;2022-12-18T00:06:24;17.45;;;6.97;;
41829;SDS011;38614;43.472;23.936;2022-12-18T00:09:13;14.38;;;7.18;;
41829;SDS011;38614;43.472;23.936;2022-12-18T00:12:01;16.25;;;7.88;;
41829;SDS011;38614;43.472;23.936;2022-12-18T00:15:01;17.80;;;7.25;;
41829;SDS011;38614;43.472;23.936;2022-12-18T00:17:49;15.02;;;7.47;;
41829;SDS011;38614;43.472;23.936;2022-12-18T00:20:37;13.32;;;6.85;;
41829;SDS011;38614;43.472;23.936;2022-12-18T00:23:25;20.15;;;7.30;;
41829;SDS011;38614;43.472;23.936;2022-12-18T00:26:15;13.25;;;6.78;;
41829;SDS011;38614;43.472;23.936;2022-12-18T00:29:10;13.70;;;6.70;;
41829;SDS011;38614;43.472;23.936;2022-12-18T00:32:02;18.35;;;7.47;;
41829;SDS011;38614;43.472;23.936;2022-12-18T00:34:50;14.70;;;6.28;;
41829;SDS011;38614;43.472;23.936;2022-12-18T00:37:38;13.80;;;6.95;;
41829;SDS011;38614;43.472;23.936;2022-12-18T00:40:25;13.73;;;7.72;;
41829;SDS011;38614;43.472;23.936;2022-12-18T00:43:13;12.98;;;7.13;;
41829;SDS011;38614;43.472;23.936;2022-12-18T00:46:01;12.52;;;7.00;;
41829;SDS011;38614;43.472;23.936;2022-12-18T00:48:49;13.15;;;6.63;;
41829;SDS011;38614;43.472;23.936;2022-12-18T00:51:36;13.48;;;6.40;;
41829;SDS011;38614;43.472;23.936;2022-12-18T00:54:24;14.52;;;7.22;;
41829;SDS011;38614;43.472;23.936;2022-12-18T00:57:12;14.15;;;7.13;;
41829;SDS011;38614;43.472;23.936;2022-12-18T00:59:59;16.38;;;6.53;;
41829;SDS011;38614;43.472;23.936;2022-12-18T01:02:48;14.35;;;7.82;;
41829;SDS011;38614;43.472;23.936;2022-12-18T01:05:38;21.45;;;8.02;;
41829;SDS011;38614;43.472;23.936;2022-12-18T01:08:27;25.65;;;9.98;;
41829;SDS011;38614;43.472;23.936;2022-12-18T01:11:18;25.02;;;9.50;;
41829;SDS011;38614;43.472;23.936;2022-12-18T01:14:07;38.30;;;11.20;;
41829;SDS011;38614;43.472;23.936;2022-12-18T01:16:56;18.20;;;8.18;;
41829;SDS011;38614;43.472;23.936;2022-12-18T01:19:44;19.13;;;8.82;;
41829;SDS011;38614;43.472;23.936;2022-12-18T01:22:33;16.83;;;8.70;;
41829;SDS011;38614;43.472;23.936;2022-12-18T01:25:22;21.92;;;7.60;;
41829;SDS011;38614;43.472;23.936;2022-12-18T01:28:10;19.85;;;9.18;;
41829;SDS011;38614;43.472;23.936;2022-12-18T01:31:08;17.40;;;9.63;;
41829;SDS011;38614;43.472;23.936;2022-12-18T01:34:02;17.50;;;8.23;;
41829;SDS011;38614;43.472;23.936;2022-12-18T01:36:54;24.35;;;10.80;;
41829;SDS011;38614;43.472;23.936;2022-12-18T01:39:41;29.23;;;10.32;;
41829;SDS011;38614;43.472;23.936;2022-12-18T01:42:33;25.02;;;11.10;;
41829;SDS011;38614;43.472;23.936;2022-12-18T01:45:31;26.85;;;9.40;;
41829;SDS011;38614;43.472;23.936;2022-12-18T01:48:20;21.75;;;9.30;;
41829;SDS011;38614;43.472;23.936;2022-12-18T01:51:08;22.20;;;10.13;;
41829;SDS011;38614;43.472;23.936;2022-12-18T01:53:57;25.02;;;10.73;;
41829;SDS011;38614;43.472;23.936;2022-12-18T01:56:46;23.10;;;9.90;;
41829;SDS011;38614;43.472;23.936;2022-12-18T01:59:34;24.23;;;10.43;;
41829;SDS011;38614;43.472;23.936;2022-12-18T02:02:24;23.13;;;11.70;;
41829;SDS011;38614;43.472;23.936;2022-12-18T02:05:27;24.60;;;11.15;;
41829;SDS011;38614;43.472;23.936;2022-12-18T02:11:18;23.70;;;10.80;;
41829;SDS011;38614;43.472;23.936;2022-12-18T02:14:18;28.02;;;12.32;;
41829;SDS011;38614;43.472;23.936;2022-12-18T02:17:11;24.70;;;10.95;;
41829;SDS011;38614;43.472;23.936;2022-12-18T02:20:43;26.38;;;12.10;;
41829;SDS011;38614;43.472;23.936;2022-12-18T02:26:30;23.83;;;11.80;;
41829;SDS011;38614;43.472;23.936;2022-12-18T02:29:33;35.17;;;13.25;;
41829;SDS011;38614;43.472;23.936;2022-12-18T02:32:28;31.63;;;12.80;;
41829;SDS011;38614;43.472;23.936;2022-12-18T02:35:24;33.33;;;14.50;;
41829;SDS011;38614;43.472;23.936;2022-12-18T02:38:17;37.03;;;14.63;;
41829;SDS011;38614;43.472;23.936;2022-12-18T02:41:08;31.73;;;14.35;;
41829;SDS011;38614;43.472;23.936;2022-12-18T02:43:59;30.52;;;13.00;;
41829;SDS011;38614;43.472;23.936;2022-12-18T02:46:51;32.03;;;14.75;;
41829;SDS011;38614;43.472;23.936;2022-12-18T02:56:12;35.03;;;14.43;;
41829;SDS011;38614;43.472;23.936;2022-12-18T02:59:09;29.48;;;12.90;;
41829;SDS011;38614;43.472;23.936;2022-12-18T03:02:22;27.83;;;12.23;;
41829;SDS011;38614;43.472;23.936;2022-12-18T03:05:28;34.95;;;14.95;;
41829;SDS011;38614;43.472;23.936;2022-12-18T03:08:23;34.08;;;14.65;;
41829;SDS011;38614;43.472;23.936;2022-12-18T03:11:16;33.35;;;14.20;;
41829;SDS011;38614;43.472;23.936;2022-12-18T03:14:26;29.13;;;13.43;;
41829;SDS011;38614;43.472;23.936;2022-12-18T03:17:19;33.85;;;14.63;;
41829;SDS011;38614;43.472;23.936;2022-12-18T03:20:14;27.30;;;13.75;;
41829;SDS011;38614;43.472;23.936;2022-12-18T03:23:23;29.10;;;13.30;;
41829;SDS011;38614;43.472;23.936;2022-12-18T03:26:14;30.92;;;14.15;;
41829;SDS011;38614;43.472;23.936;2022-12-18T03:29:10;38.58;;;14.07;;
41829;SDS011;38614;43.472;23.936;2022-12-18T03:32:11;32.83;;;12.82;;
41829;SDS011;38614;43.472;23.936;2022-12-18T03:35:03;26.58;;;12.02;;
41829;SDS011;38614;43.472;23.936;2022-12-18T03:37:56;31.73;;;13.63;;
41829;SDS011;38614;43.472;23.936;2022-12-18T03:44:35;30.55;;;12.90;;
41829;SDS011;38614;43.472;23.936;2022-12-18T03:54:22;31.23;;;14.27;;
41829;SDS011;38614;43.472;23.936;2022-12-18T03:57:19;30.55;;;14.18;;
41829;SDS011;38614;43.472;23.936;2022-12-18T04:00:12;27.45;;;12.07;;
41829;SDS011;38614;43.472;23.936;2022-12-18T04:03:23;28.23;;;12.90;;
41829;SDS011;38614;43.472;23.936;2022-12-18T04:06:26;34.35;;;14.15;;
41829;SDS011;38614;43.472;23.936;2022-12-18T04:09:15;41.17;;;13.93;;
41829;SDS011;38614;43.472;23.936;2022-12-18T04:12:06;30.73;;;13.70;;
41829;SDS011;38614;43.472;23.936;2022-12-18T04:14:54;32.00;;;14.27;;
41829;SDS011;38614;43.472;23.936;2022-12-18T04:17:46;34.28;;;14.30;;
41829;SDS011;38614;43.472;23.936;2022-12-18T04:20:38;31.48;;;13.80;;
41829;SDS011;38614;43.472;23.936;2022-12-18T04:23:27;35.58;;;12.60;;
41829;SDS011;38614;43.472;23.936;2022-12-18T04:26:17;36.72;;;14.20;;
41829;SDS011;38614;43.472;23.936;2022-12-18T04:29:31;34.10;;;15.27;;
41829;SDS011;38614;43.472;23.936;2022-12-18T04:32:22;33.53;;;14.43;;
41829;SDS011;38614;43.472;23.936;2022-12-18T04:35:19;29.98;;;13.82;;
41829;SDS011;38614;43.472;23.936;2022-12-18T04:38:07;33.13;;;13.63;;
41829;SDS011;38614;43.472;23.936;2022-12-18T04:40:59;24.90;;;12.57;;
41829;SDS011;38614;43.472;23.936;2022-12-18T04:43:47;30.00;;;11.90;;
41829;SDS011;38614;43.472;23.936;2022-12-18T04:46:34;31.98;;;12.65;;
41829;SDS011;38614;43.472;23.936;2022-12-18T04:49:24;30.33;;;12.35;;
41829;SDS011;38614;43.472;23.936;2022-12-18T04:52:13;29.52;;;12.90;;
41829;SDS011;38614;43.472;23.936;2022-12-18T04:55:03;32.90;;;13.23;;
41829;SDS011;38614;43.472;23.936;2022-12-18T04:57:51;30.48;;;13.90;;
41829;SDS011;38614;43.472;23.936;2022-12-18T05:00:38;25.63;;;12.27;;
41829;SDS011;38614;43.472;23.936;2022-12-18T05:03:26;30.30;;;14.57;;
41829;SDS011;38614;43.472;23.936;2022-12-18T05:06:14;32.40;;;14.02;;
41829;SDS011;38614;43.472;23.936;2022-12-18T05:09:02;28.67;;;13.40;;
41829;SDS011;38614;43.472;23.936;2022-12-18T05:11:50;30.48;;;12.32;;
41829;SDS011;38614;43.472;23.936;2022-12-18T05:14:40;21.42;;;12.35;;
41829;SDS011;38614;43.472;23.936;2022-12-18T05:17:28;24.05;;;11.82;;
41829;SDS011;38614;43.472;23.936;2022-12-18T05:20:15;26.85;;;13.27;;
41829;SDS011;38614;43.472;23.936;2022-12-18T05:23:06;32.90;;;13.93;;
41829;SDS011;38614;43.472;23.936;2022-12-18T05:25:55;33.03;;;14.25;;
41829;SDS011;38614;43.472;23.936;2022-12-18T05:28:44;32.38;;;13.15;;
41829;SDS011;38614;43.472;23.936;2022-12-18T05:31:33;41.25;;;13.85;;
41829;SDS011;38614;43.472;23.936;2022-12-18T05:34:25;32.63;;;16.00;;
41829;SDS011;38614;43.472;23.936;2022-12-18T05:37:13;35.97;;;15.32;;
41829;SDS011;38614;43.472;23.936;2022-12-18T05:40:01;31.67;;;15.63;;
41829;SDS011;38614;43.472;23.936;2022-12-18T05:42:34;32.33;;;14.57;;
41829;SDS011;38614;43.472;23.936;2022-12-18T05:45:21;28.75;;;13.60;;
41829;SDS011;38614;43.472;23.936;2022-12-18T05:48:12;31.88;;;14.98;;
41829;SDS011;38614;43.472;23.936;2022-12-18T05:51:06;37.97;;;14.32;;
41829;SDS011;38614;43.472;23.936;2022-12-18T05:53:56;35.40;;;13.40;;
41829;SDS011;38614;43.472;23.936;2022-12-18T05:56:47;35.28;;;13.98;;
41829;SDS011;38614;43.472;23.936;2022-12-18T05:59:37;24.63;;;13.15;;
41829;SDS011;38614;43.472;23.936;2022-12-18T06:02:25;32.85;;;15.18;;
41829;SDS011;38614;43.472;23.936;2022-12-18T06:05:13;28.58;;;14.02;;
41829;SDS011;38614;43.472;23.936;2022-12-18T06:08:00;29.98;;;13.18;;
41829;SDS011;38614;43.472;23.936;2022-12-18T06:10:52;30.15;;;14.95;;
41829;SDS011;38614;43.472;23.936;2022-12-18T06:13:45;27.80;;;14.27;;
41829;SDS011;38614;43.472;23.936;2022-12-18T06:16:33;27.20;;;13.38;;
41829;SDS011;38614;43.472;23.936;2022-12-18T06:19:21;30.30;;;15.60;;
41829;SDS011;38614;43.472;23.936;2022-12-18T06:22:12;29.38;;;13.35;;
41829;SDS011;38614;43.472;23.936;2022-12-18T06:24:59;29.42;;;14.63;;
41829;SDS011;38614;43.472;23.936;2022-12-18T06:27:47;29.75;;;14.30;;
41829;SDS011;38614;43.472;23.936;2022-12-18T06:30:35;29.38;;;12.93;;
41829;SDS011;38614;43.472;23.936;2022-12-18T06:33:25;30.40;;;12.18;;
41829;SDS011;38614;43.472;23.936;2022-12-18T06:36:14;29.98;;;13.70;;
41829;SDS011;38614;43.472;23.936;2022-12-18T06:39:02;26.80;;;13.07;;
41829;SDS011;38614;43.472;23.936;2022-12-18T06:41:50;32.33;;;13.73;;
41829;SDS011;38614;43.472;23.936;2022-12-18T06:44:38;31.85;;;13.23;;
41829;SDS011;38614;43.472;23.936;2022-12-18T06:47:26;26.55;;;13.68;;
41829;SDS011;38614;43.472;23.936;2022-12-18T06:50:14;34.58;;;15.60;;
41829;SDS011;38614;43.472;23.936;2022-12-18T06:53:04;27.60;;;13.23;;
41829;SDS011;38614;43.472;23.936;2022-12-18T06:56:02;33.28;;;15.88;;
41829;SDS011;38614;43.472;23.936;2022-12-18T06:58:57;23.65;;;12.23;;
41829;SDS011;38614;43.472;23.936;2022-12-18T07:01:56;34.20;;;14.00;;
41829;SDS011;38614;43.472;23.936;2022-12-18T07:04:44;35.58;;;15.32;;
41829;SDS011;38614;43.472;23.936;2022-12-18T07:07:38;27.80;;;12.57;;
41829;SDS011;38614;43.472;23.936;2022-12-18T07:13:19;30.60;;;13.65;;
41829;SDS011;38614;43.472;23.936;2022-12-18T07:16:10;61.22;;;24.13;;
41829;SDS011;38614;43.472;23.936;2022-12-18T07:19:12;71.60;;;31.30;;
41829;SDS011;38614;43.472;23.936;2022-12-18T07:26:09;36.80;;;17.05;;
41829;SDS011;38614;43.472;23.936;2022-12-18T07:28:59;34.33;;;13.98;;
41829;SDS011;38614;43.472;23.936;2022-12-18T07:31:47;23.23;;;11.82;;
41829;SDS011;38614;43.472;23.936;2022-12-18T07:34:34;26.67;;;12.57;;
41829;SDS011;38614;43.472;23.936;2022-12-18T07:37:25;23.17;;;10.43;;
41829;SDS011;38614;43.472;23.936;2022-12-18T07:40:13;24.00;;;11.18;;
41829;SDS011;38614;43.472;23.936;2022-12-18T07:43:01;30.98;;;13.32;;
41829;SDS011;38614;43.472;23.936;2022-12-18T07:45:49;30.08;;;12.25;;
41829;SDS011;38614;43.472;23.936;2022-12-18T07:48:37;35.05;;;15.73;;
41829;SDS011;38614;43.472;23.936;2022-12-18T07:51:25;26.65;;;14.95;;
41829;SDS011;38614;43.472;23.936;2022-12-18T07:54:13;39.30;;;16.20;;
41829;SDS011;38614;43.472;23.936;2022-12-18T07:57:01;48.28;;;19.13;;
41829;SDS011;38614;43.472;23.936;2022-12-18T07:59:48;37.78;;;16.27;;
41829;SDS011;38614;43.472;23.936;2022-12-18T08:02:36;27.85;;;13.90;;
41829;SDS011;38614;43.472;23.936;2022-12-18T08:05:25;29.60;;;12.90;;
41829;SDS011;38614;43.472;23.936;2022-12-18T08:08:13;32.35;;;14.60;;
41829;SDS011;38614;43.472;23.936;2022-12-18T08:11:01;33.80;;;16.02;;
41829;SDS011;38614;43.472;23.936;2022-12-18T08:13:49;34.72;;;13.35;;
41829;SDS011;38614;43.472;23.936;2022-12-18T08:16:38;29.67;;;14.00;;
41829;SDS011;38614;43.472;23.936;2022-12-18T08:19:25;34.30;;;14.95;;
41829;SDS011;38614;43.472;23.936;2022-12-18T08:22:16;30.15;;;13.68;;
41829;SDS011;38614;43.472;23.936;2022-12-18T08:25:04;31.30;;;13.07;;
41829;SDS011;38614;43.472;23.936;2022-12-18T08:27:52;34.72;;;14.60;;
41829;SDS011;38614;43.472;23.936;2022-12-18T08:30:40;31.50;;;12.65;;
41829;SDS011;38614;43.472;23.936;2022-12-18T08:33:29;24.15;;;11.55;;
41829;SDS011;38614;43.472;23.936;2022-12-18T08:36:17;30.55;;;12.13;;
41829;SDS011;38614;43.472;23.936;2022-12-18T08:39:07;26.48;;;12.93;;
41829;SDS011;38614;43.472;23.936;2022-12-18T08:41:57;25.85;;;11.25;;
41829;SDS011;38614;43.472;23.936;2022-12-18T08:45:04;28.02;;;12.57;;
41829;SDS011;38614;43.472;23.936;2022-12-18T08:47:54;26.95;;;13.73;;
41829;SDS011;38614;43.472;23.936;2022-12-18T08:50:42;28.42;;;13.07;;
41829;SDS011;38614;43.472;23.936;2022-12-18T08:53:30;40.92;;;17.33;;
41829;SDS011;38614;43.472;23.936;2022-12-18T08:56:21;32.65;;;16.45;;
41829;SDS011;38614;43.472;23.936;2022-12-18T08:59:09;29.35;;;13.25;;
41829;SDS011;38614;43.472;23.936;2022-12-18T09:02:05;27.55;;;12.43;;
41829;SDS011;38614;43.472;23.936;2022-12-18T09:04:53;30.33;;;13.27;;
41829;SDS011;38614;43.472;23.936;2022-12-18T09:07:43;22.40;;;10.73;;
41829;SDS011;38614;43.472;23.936;2022-12-18T09:10:32;20.25;;;9.70;;
41829;SDS011;38614;43.472;23.936;2022-12-18T09:13:27;20.92;;;9.65;;
41829;SDS011;38614;43.472;23.936;2022-12-18T09:16:15;31.85;;;12.32;;
41829;SDS011;38614;43.472;23.936;2022-12-18T09:19:04;23.60;;;10.50;;
41829;SDS011;38614;43.472;23.936;2022-12-18T09:21:52;28.40;;;10.57;;
41829;SDS011;38614;43.472;23.936;2022-12-18T09:24:42;14.75;;;7.45;;
41829;SDS011;38614;43.472;23.936;2022-12-18T09:27:34;19.73;;;8.68;;
41829;SDS011;38614;43.472;23.936;2022-12-18T09:30:21;22.23;;;10.18;;
41829;SDS011;38614;43.472;23.936;2022-12-18T09:33:09;17.83;;;8.63;;
41829;SDS011;38614;43.472;23.936;2022-12-18T09:36:00;14.45;;;6.53;;
41829;SDS011;38614;43.472;23.936;2022-12-18T09:38:51;21.45;;;8.45;;
41829;SDS011;38614;43.472;23.936;2022-12-18T09:41:44;18.90;;;8.45;;
41829;SDS011;38614;43.472;23.936;2022-12-18T09:44:43;19.40;;;10.10;;
41829;SDS011;38614;43.472;23.936;2022-12-18T09:47:37;24.95;;;9.73;;
41829;SDS011;38614;43.472;23.936;2022-12-18T09:50:34;18.25;;;9.30;;
41829;SDS011;38614;43.472;23.936;2022-12-18T09:53:24;16.08;;;8.20;;
41829;SDS011;38614;43.472;23.936;2022-12-18T09:56:18;15.82;;;8.00;;
41829;SDS011;38614;43.472;23.936;2022-12-18T09:59:15;16.40;;;7.18;;
41829;SDS011;38614;43.472;23.936;2022-12-18T10:02:18;15.43;;;7.43;;
41829;SDS011;38614;43.472;23.936;2022-12-18T10:17:50;12.45;;;6.55;;
41829;SDS011;38614;43.472;23.936;2022-12-18T10:21:03;13.95;;;7.00;;
41829;SDS011;38614;43.472;23.936;2022-12-18T10:24:08;12.70;;;6.53;;
41829;SDS011;38614;43.472;23.936;2022-12-18T10:27:08;14.48;;;6.25;;
41829;SDS011;38614;43.472;23.936;2022-12-18T10:30:07;17.70;;;6.15;;
41829;SDS011;38614;43.472;23.936;2022-12-18T10:33:01;28.65;;;7.20;;
41829;SDS011;38614;43.472;23.936;2022-12-18T10:35:53;14.55;;;6.05;;
41829;SDS011;38614;43.472;23.936;2022-12-18T10:38:42;14.90;;;8.10;;
41829;SDS011;38614;43.472;23.936;2022-12-18T10:41:30;19.50;;;8.15;;
41829;SDS011;38614;43.472;23.936;2022-12-18T10:44:20;22.10;;;8.88;;
41829;SDS011;38614;43.472;23.936;2022-12-18T10:47:17;20.65;;;9.90;;
41829;SDS011;38614;43.472;23.936;2022-12-18T10:50:10;18.38;;;8.15;;
41829;SDS011;38614;43.472;23.936;2022-12-18T10:53:13;22.60;;;8.25;;
41829;SDS011;38614;43.472;23.936;2022-12-18T10:56:06;18.38;;;8.38;;
41829;SDS011;38614;43.472;23.936;2022-12-18T10:59:13;13.93;;;6.55;;
41829;SDS011;38614;43.472;23.936;2022-12-18T11:02:07;16.38;;;6.45;;
41829;SDS011;38614;43.472;23.936;2022-12-18T11:08:20;17.45;;;6.75;;
41829;SDS011;38614;43.472;23.936;2022-12-18T11:11:21;11.75;;;5.47;;
41829;SDS011;38614;43.472;23.936;2022-12-18T11:14:15;13.10;;;5.25;;
41829;SDS011;38614;43.472;23.936;2022-12-18T11:17:17;10.40;;;4.32;;
41829;SDS011;38614;43.472;23.936;2022-12-18T11:23:25;12.90;;;4.78;;
41829;SDS011;38614;43.472;23.936;2022-12-18T11:26:14;12.63;;;5.53;;
41829;SDS011;38614;43.472;23.936;2022-12-18T11:29:09;13.85;;;4.63;;
41829;SDS011;38614;43.472;23.936;2022-12-18T11:32:22;9.07;;;4.53;;
41829;SDS011;38614;43.472;23.936;2022-12-18T11:35:19;14.02;;;5.95;;
41829;SDS011;38614;43.472;23.936;2022-12-18T11:38:35;13.70;;;5.35;;
41829;SDS011;38614;43.472;23.936;2022-12-18T11:41:32;12.60;;;4.50;;
41829;SDS011;38614;43.472;23.936;2022-12-18T11:44:55;12.68;;;5.05;;
41829;SDS011;38614;43.472;23.936;2022-12-18T11:47:54;6.85;;;3.15;;
41829;SDS011;38614;43.472;23.936;2022-12-18T11:51:00;9.90;;;4.18;;
41829;SDS011;38614;43.472;23.936;2022-12-18T11:53:51;11.85;;;3.60;;
41829;SDS011;38614;43.472;23.936;2022-12-18T11:56:41;8.02;;;4.03;;
41829;SDS011;38614;43.472;23.936;2022-12-18T11:59:38;13.82;;;4.95;;
41829;SDS011;38614;43.472;23.936;2022-12-18T12:28:35;13.52;;;3.92;;
41829;SDS011;38614;43.472;23.936;2022-12-18T12:41:27;9.95;;;4.43;;
41829;SDS011;38614;43.472;23.936;2022-12-18T12:44:39;9.70;;;4.60;;
41829;SDS011;38614;43.472;23.936;2022-12-18T12:47:35;11.20;;;5.47;;
41829;SDS011;38614;43.472;23.936;2022-12-18T12:50:34;14.10;;;5.70;;
41829;SDS011;38614;43.472;23.936;2022-12-18T12:53:26;12.30;;;5.22;;
41829;SDS011;38614;43.472;23.936;2022-12-18T12:56:22;13.00;;;5.10;;
41829;SDS011;38614;43.472;23.936;2022-12-18T12:59:22;11.10;;;5.25;;
41829;SDS011;38614;43.472;23.936;2022-12-18T13:05:50;11.73;;;5.25;;
41829;SDS011;38614;43.472;23.936;2022-12-18T13:08:52;11.23;;;5.40;;
41829;SDS011;38614;43.472;23.936;2022-12-18T13:11:47;15.07;;;5.60;;
41829;SDS011;38614;43.472;23.936;2022-12-18T13:15:11;13.52;;;5.70;;
41829;SDS011;38614;43.472;23.936;2022-12-18T13:24:14;11.95;;;5.32;;
41829;SDS011;38614;43.472;23.936;2022-12-18T13:30:47;10.25;;;5.70;;
41829;SDS011;38614;43.472;23.936;2022-12-18T13:33:43;14.35;;;5.85;;
41829;SDS011;38614;43.472;23.936;2022-12-18T13:36:53;13.55;;;4.75;;
41829;SDS011;38614;43.472;23.936;2022-12-18T13:39:42;18.15;;;5.50;;
41829;SDS011;38614;43.472;23.936;2022-12-18T13:42:48;18.38;;;6.95;;
41829;SDS011;38614;43.472;23.936;2022-12-18T13:51:52;17.30;;;5.70;;
41829;SDS011;38614;43.472;23.936;2022-12-18T13:54:45;10.98;;;5.25;;
41829;SDS011;38614;43.472;23.936;2022-12-18T13:58:04;12.32;;;5.22;;
41829;SDS011;38614;43.472;23.936;2022-12-18T14:00:53;16.15;;;7.65;;
41829;SDS011;38614;43.472;23.936;2022-12-18T14:03:41;15.65;;;6.88;;
41829;SDS011;38614;43.472;23.936;2022-12-18T14:06:29;21.90;;;8.90;;
41829;SDS011;38614;43.472;23.936;2022-12-18T14:09:20;17.70;;;6.07;;
41829;SDS011;38614;43.472;23.936;2022-12-18T14:12:17;13.80;;;6.57;;
41829;SDS011;38614;43.472;23.936;2022-12-18T14:15:31;21.90;;;6.75;;
41829;SDS011;38614;43.472;23.936;2022-12-18T14:19:04;18.08;;;7.65;;
41829;SDS011;38614;43.472;23.936;2022-12-18T14:21:33;24.92;;;7.75;;
41829;SDS011;38614;43.472;23.936;2022-12-18T14:24:22;20.55;;;8.95;;
41829;SDS011;38614;43.472;23.936;2022-12-18T14:27:19;17.83;;;7.30;;
41829;SDS011;38614;43.472;23.936;2022-12-18T14:36:05;21.92;;;7.97;;
41829;SDS011;38614;43.472;23.936;2022-12-18T14:39:03;20.98;;;8.40;;
41829;SDS011;38614;43.472;23.936;2022-12-18T14:41:51;18.90;;;9.40;;
41829;SDS011;38614;43.472;23.936;2022-12-18T14:44:39;20.00;;;9.02;;
41829;SDS011;38614;43.472;23.936;2022-12-18T14:47:47;27.25;;;10.10;;
41829;SDS011;38614;43.472;23.936;2022-12-18T14:50:35;20.25;;;10.05;;
41829;SDS011;38614;43.472;23.936;2022-12-18T14:53:26;19.00;;;8.57;;
41829;SDS011;38614;43.472;23.936;2022-12-18T14:56:21;23.50;;;9.07;;
41829;SDS011;38614;43.472;23.936;2022-12-18T15:05:02;23.73;;;8.52;;
41829;SDS011;38614;43.472;23.936;2022-12-18T15:07:59;21.92;;;10.00;;
41829;SDS011;38614;43.472;23.936;2022-12-18T15:10:49;23.55;;;11.80;;
41829;SDS011;38614;43.472;23.936;2022-12-18T15:13:37;23.20;;;10.15;;
41829;SDS011;38614;43.472;23.936;2022-12-18T15:16:26;24.58;;;10.65;;
41829;SDS011;38614;43.472;23.936;2022-12-18T15:19:16;28.08;;;10.38;;
41829;SDS011;38614;43.472;23.936;2022-12-18T15:22:19;28.77;;;10.52;;
41829;SDS011;38614;43.472;23.936;2022-12-18T15:25:27;29.58;;;10.25;;
41829;SDS011;38614;43.472;23.936;2022-12-18T15:28:56;21.50;;;9.73;;
41829;SDS011;38614;43.472;23.936;2022-12-18T15:31:44;29.50;;;11.57;;
41829;SDS011;38614;43.472;23.936;2022-12-18T15:34:47;35.55;;;12.55;;
41829;SDS011;38614;43.472;23.936;2022-12-18T15:37:35;48.70;;;17.38;;
41829;SDS011;38614;43.472;23.936;2022-12-18T15:40:23;30.10;;;12.93;;
41829;SDS011;38614;43.472;23.936;2022-12-18T15:43:11;40.55;;;16.58;;
41829;SDS011;38614;43.472;23.936;2022-12-18T15:49:09;37.10;;;13.73;;
41829;SDS011;38614;43.472;23.936;2022-12-18T15:51:58;42.22;;;16.65;;
41829;SDS011;38614;43.472;23.936;2022-12-18T15:54:47;53.60;;;19.00;;
41829;SDS011;38614;43.472;23.936;2022-12-18T15:57:53;36.17;;;16.00;;
41829;SDS011;38614;43.472;23.936;2022-12-18T16:00:41;36.08;;;15.43;;
41829;SDS011;38614;43.472;23.936;2022-12-18T16:03:29;39.67;;;14.82;;
41829;SDS011;38614;43.472;23.936;2022-12-18T16:06:16;35.30;;;15.80;;
41829;SDS011;38614;43.472;23.936;2022-12-18T16:09:04;38.75;;;16.20;;
41829;SDS011;38614;43.472;23.936;2022-12-18T16:11:52;34.28;;;15.45;;
41829;SDS011;38614;43.472;23.936;2022-12-18T16:14:40;43.35;;;17.73;;
41829;SDS011;38614;43.472;23.936;2022-12-18T16:17:31;42.25;;;17.63;;
41829;SDS011;38614;43.472;23.936;2022-12-18T16:20:20;44.53;;;18.20;;
41829;SDS011;38614;43.472;23.936;2022-12-18T16:23:09;36.25;;;18.25;;
41829;SDS011;38614;43.472;23.936;2022-12-18T16:25:57;39.78;;;16.60;;
41829;SDS011;38614;43.472;23.936;2022-12-18T16:28:45;49.80;;;22.38;;
41829;SDS011;38614;43.472;23.936;2022-12-18T16:31:41;49.88;;;23.90;;
41829;SDS011;38614;43.472;23.936;2022-12-18T16:34:31;67.47;;;24.92;;
41829;SDS011;38614;43.472;23.936;2022-12-18T16:37:25;56.22;;;22.88;;
41829;SDS011;38614;43.472;23.936;2022-12-18T16:40:16;61.30;;;24.37;;
41829;SDS011;38614;43.472;23.936;2022-12-18T16:43:05;60.17;;;25.02;;
41829;SDS011;38614;43.472;23.936;2022-12-18T16:45:52;68.95;;;26.33;;
41829;SDS011;38614;43.472;23.936;2022-12-18T16:48:47;52.90;;;24.65;;
41829;SDS011;38614;43.472;23.936;2022-12-18T16:51:35;49.72;;;19.55;;
41829;SDS011;38614;43.472;23.936;2022-12-18T16:54:23;50.15;;;25.52;;
41829;SDS011;38614;43.472;23.936;2022-12-18T16:57:17;45.67;;;19.08;;
41829;SDS011;38614;43.472;23.936;2022-12-18T17:00:09;34.65;;;15.57;;
41829;SDS011;38614;43.472;23.936;2022-12-18T17:02:58;41.17;;;15.27;;
41829;SDS011;38614;43.472;23.936;2022-12-18T17:05:50;53.63;;;16.33;;
41829;SDS011;38614;43.472;23.936;2022-12-18T17:08:39;36.50;;;15.85;;
41829;SDS011;38614;43.472;23.936;2022-12-18T17:11:28;38.47;;;17.45;;
41829;SDS011;38614;43.472;23.936;2022-12-18T17:14:19;61.03;;;23.92;;
41829;SDS011;38614;43.472;23.936;2022-12-18T17:17:09;55.38;;;22.38;;
41829;SDS011;38614;43.472;23.936;2022-12-18T17:20:15;48.90;;;15.88;;
41829;SDS011;38614;43.472;23.936;2022-12-18T17:23:03;38.10;;;15.27;;
41829;SDS011;38614;43.472;23.936;2022-12-18T17:25:53;36.88;;;16.38;;
41829;SDS011;38614;43.472;23.936;2022-12-18T17:28:42;49.58;;;21.10;;
41829;SDS011;38614;43.472;23.936;2022-12-18T17:31:30;39.47;;;17.40;;
41829;SDS011;38614;43.472;23.936;2022-12-18T17:34:18;32.22;;;17.05;;
41829;SDS011;38614;43.472;23.936;2022-12-18T17:37:08;38.72;;;14.93;;
41829;SDS011;38614;43.472;23.936;2022-12-18T17:39:55;55.13;;;22.08;;
41829;SDS011;38614;43.472;23.936;2022-12-18T17:42:33;46.80;;;19.25;;
41829;SDS011;38614;43.472;23.936;2022-12-18T17:45:21;36.20;;;15.93;;
41829;SDS011;38614;43.472;23.936;2022-12-18T17:48:09;32.92;;;13.57;;
41829;SDS011;38614;43.472;23.936;2022-12-18T17:51:02;37.72;;;14.98;;
41829;SDS011;38614;43.472;23.936;2022-12-18T17:53:51;31.02;;;13.52;;
41829;SDS011;38614;43.472;23.936;2022-12-18T17:56:39;32.17;;;13.73;;
41829;SDS011;38614;43.472;23.936;2022-12-18T17:59:27;29.55;;;11.98;;
41829;SDS011;38614;43.472;23.936;2022-12-18T18:02:14;38.08;;;12.52;;
41829;SDS011;38614;43.472;23.936;2022-12-18T18:05:03;36.45;;;13.35;;
41829;SDS011;38614;43.472;23.936;2022-12-18T18:07:51;45.50;;;14.55;;
41829;SDS011;38614;43.472;23.936;2022-12-18T18:10:39;69.60;;;21.92;;
41829;SDS011;38614;43.472;23.936;2022-12-18T18:13:35;48.72;;;17.30;;
41829;SDS011;38614;43.472;23.936;2022-12-18T18:16:47;44.03;;;15.85;;
41829;SDS011;38614;43.472;23.936;2022-12-18T18:19:41;103.13;;;29.85;;
41829;SDS011;38614;43.472;23.936;2022-12-18T18:22:34;52.92;;;17.73;;
41829;SDS011;38614;43.472;23.936;2022-12-18T18:25:22;37.35;;;15.20;;
41829;SDS011;38614;43.472;23.936;2022-12-18T18:28:11;59.80;;;20.30;;
41829;SDS011;38614;43.472;23.936;2022-12-18T18:31:03;43.78;;;17.15;;
41829;SDS011;38614;43.472;23.936;2022-12-18T18:33:52;40.53;;;15.18;;
41829;SDS011;38614;43.472;23.936;2022-12-18T18:36:43;39.22;;;15.73;;
41829;SDS011;38614;43.472;23.936;2022-12-18T18:39:33;28.98;;;13.73;;